sensor_id;sensor_type;location;lat;lon;timestamp;P1;durP1;ratioP1;P2;durP2;ratioP2
21128;SDS011;10722;51.910;8.352;2023-03-14T00:00:33;8.50;;;2.10;;
21128;SDS011;10722;51.910;8.352;2023-03-14T00:03:20;9.73;;;2.20;;
21128;SDS011;10722;51.910;8.352;2023-03-14T00:06:05;7.67;;;2.10;;
21128;SDS011;10722;51.910;8.352;2023-03-14T00:08:51;9.82;;;2.13;;
21128;SDS011;10722;51.910;8.352;2023-03-14T00:11:36;8.13;;;2.10;;
21128;SDS011;10722;51.910;8.352;2023-03-14T00:14:22;10.93;;;2.63;;
21128;SDS011;10722;51.910;8.352;2023-03-14T00:17:08;8.57;;;2.37;;
21128;SDS011;10722;51.910;8.352;2023-03-14T00:19:53;12.37;;;2.50;;
21128;SDS011;10722;51.910;8.352;2023-03-14T00:22:39;7.33;;;2.07;;
21128;SDS011;10722;51.910;8.352;2023-03-14T00:25:25;11.10;;;2.30;;
21128;SDS011;10722;51.910;8.352;2023-03-14T00:28:10;11.03;;;2.67;;
21128;SDS011;10722;51.910;8.352;2023-03-14T00:30:54;9.77;;;2.30;;
21128;SDS011;10722;51.910;8.352;2023-03-14T00:33:41;10.77;;;2.40;;
21128;SDS011;10722;51.910;8.352;2023-03-14T00:36:26;14.20;;;2.60;;
21128;SDS011;10722;51.910;8.352;2023-03-14T00:39:12;10.17;;;2.43;;
21128;SDS011;10722;51.910;8.352;2023-03-14T00:41:58;9.63;;;2.40;;
21128;SDS011;10722;51.910;8.352;2023-03-14T00:44:43;13.17;;;2.47;;
21128;SDS011;10722;51.910;8.352;2023-03-14T00:47:28;8.10;;;2.27;;
21128;SDS011;10722;51.910;8.352;2023-03-14T00:50:14;12.03;;;2.37;;
21128;SDS011;10722;51.910;8.352;2023-03-14T00:52:59;14.03;;;2.37;;
21128;SDS011;10722;51.910;8.352;2023-03-14T00:55:44;10.43;;;2.47;;
21128;SDS011;10722;51.910;8.352;2023-03-14T00:58:30;10.80;;;2.73;;
21128;SDS011;10722;51.910;8.352;2023-03-14T01:01:16;10.33;;;2.77;;
21128;SDS011;10722;51.910;8.352;2023-03-14T01:04:03;9.87;;;2.33;;
21128;SDS011;10722;51.910;8.352;2023-03-14T01:06:48;13.53;;;2.50;;
21128;SDS011;10722;51.910;8.352;2023-03-14T01:09:34;9.13;;;2.03;;
21128;SDS011;10722;51.910;8.352;2023-03-14T01:12:19;10.17;;;2.27;;
21128;SDS011;10722;51.910;8.352;2023-03-14T01:15:05;13.30;;;2.67;;
21128;SDS011;10722;51.910;8.352;2023-03-14T01:17:51;10.95;;;2.20;;
21128;SDS011;10722;51.910;8.352;2023-03-14T01:20:36;13.30;;;2.20;;
21128;SDS011;10722;51.910;8.352;2023-03-14T01:23:22;9.10;;;2.03;;
21128;SDS011;10722;51.910;8.352;2023-03-14T01:26:14;14.77;;;2.50;;
21128;SDS011;10722;51.910;8.352;2023-03-14T01:29:02;10.33;;;1.87;;
21128;SDS011;10722;51.910;8.352;2023-03-14T01:31:47;9.07;;;2.13;;
21128;SDS011;10722;51.910;8.352;2023-03-14T01:34:33;11.97;;;2.40;;
21128;SDS011;10722;51.910;8.352;2023-03-14T01:37:18;12.03;;;2.50;;
21128;SDS011;10722;51.910;8.352;2023-03-14T01:40:04;11.10;;;2.17;;
21128;SDS011;10722;51.910;8.352;2023-03-14T01:42:56;11.77;;;2.57;;
21128;SDS011;10722;51.910;8.352;2023-03-14T01:51:58;11.87;;;2.00;;
21128;SDS011;10722;51.910;8.352;2023-03-14T01:54:53;9.53;;;2.20;;
21128;SDS011;10722;51.910;8.352;2023-03-14T01:57:47;10.43;;;2.40;;
21128;SDS011;10722;51.910;8.352;2023-03-14T02:00:37;12.02;;;2.25;;
21128;SDS011;10722;51.910;8.352;2023-03-14T02:03:23;13.53;;;2.63;;
21128;SDS011;10722;51.910;8.352;2023-03-14T02:06:10;11.57;;;2.30;;
21128;SDS011;10722;51.910;8.352;2023-03-14T02:08:57;14.70;;;2.70;;
21128;SDS011;10722;51.910;8.352;2023-03-14T02:11:44;11.97;;;2.10;;
21128;SDS011;10722;51.910;8.352;2023-03-14T02:14:31;10.90;;;2.20;;
21128;SDS011;10722;51.910;8.352;2023-03-14T02:17:25;14.17;;;2.53;;
21128;SDS011;10722;51.910;8.352;2023-03-14T02:29:51;8.63;;;1.90;;
21128;SDS011;10722;51.910;8.352;2023-03-14T02:32:44;6.77;;;1.50;;
21128;SDS011;10722;51.910;8.352;2023-03-14T02:35:34;9.30;;;1.40;;
21128;SDS011;10722;51.910;8.352;2023-03-14T02:41:37;5.73;;;1.10;;
21128;SDS011;10722;51.910;8.352;2023-03-14T02:44:22;6.30;;;1.30;;
21128;SDS011;10722;51.910;8.352;2023-03-14T02:47:07;7.57;;;1.40;;
21128;SDS011;10722;51.910;8.352;2023-03-14T02:49:53;6.17;;;1.20;;
21128;SDS011;10722;51.910;8.352;2023-03-14T02:52:46;4.90;;;1.13;;
21128;SDS011;10722;51.910;8.352;2023-03-14T02:55:31;7.50;;;1.80;;
21128;SDS011;10722;51.910;8.352;2023-03-14T02:58:17;5.60;;;1.40;;
21128;SDS011;10722;51.910;8.352;2023-03-14T03:01:03;9.20;;;1.50;;
21128;SDS011;10722;51.910;8.352;2023-03-14T03:03:49;8.80;;;1.57;;
21128;SDS011;10722;51.910;8.352;2023-03-14T03:06:34;11.23;;;1.93;;
21128;SDS011;10722;51.910;8.352;2023-03-14T03:09:19;8.27;;;1.70;;
21128;SDS011;10722;51.910;8.352;2023-03-14T03:12:04;9.27;;;1.63;;
21128;SDS011;10722;51.910;8.352;2023-03-14T03:14:50;8.93;;;1.67;;
21128;SDS011;10722;51.910;8.352;2023-03-14T03:17:35;8.10;;;1.53;;
21128;SDS011;10722;51.910;8.352;2023-03-14T03:20:21;4.93;;;1.20;;
21128;SDS011;10722;51.910;8.352;2023-03-14T03:23:06;6.30;;;1.43;;
21128;SDS011;10722;51.910;8.352;2023-03-14T03:25:51;5.73;;;1.10;;
21128;SDS011;10722;51.910;8.352;2023-03-14T03:28:37;5.93;;;1.10;;
21128;SDS011;10722;51.910;8.352;2023-03-14T03:31:22;5.57;;;1.30;;
21128;SDS011;10722;51.910;8.352;2023-03-14T03:34:08;4.40;;;0.90;;
21128;SDS011;10722;51.910;8.352;2023-03-14T03:36:55;6.87;;;1.30;;
21128;SDS011;10722;51.910;8.352;2023-03-14T03:39:41;6.07;;;1.30;;
21128;SDS011;10722;51.910;8.352;2023-03-14T03:42:27;3.90;;;1.00;;
21128;SDS011;10722;51.910;8.352;2023-03-14T03:45:12;7.50;;;1.40;;
21128;SDS011;10722;51.910;8.352;2023-03-14T03:47:58;6.43;;;1.37;;
21128;SDS011;10722;51.910;8.352;2023-03-14T03:50:46;7.07;;;1.40;;
21128;SDS011;10722;51.910;8.352;2023-03-14T03:53:31;7.97;;;1.43;;
21128;SDS011;10722;51.910;8.352;2023-03-14T03:56:18;7.77;;;1.40;;
21128;SDS011;10722;51.910;8.352;2023-03-14T03:59:03;8.77;;;2.00;;
21128;SDS011;10722;51.910;8.352;2023-03-14T04:01:48;8.83;;;1.63;;
21128;SDS011;10722;51.910;8.352;2023-03-14T04:04:34;11.53;;;1.90;;
21128;SDS011;10722;51.910;8.352;2023-03-14T04:07:19;14.23;;;2.17;;
21128;SDS011;10722;51.910;8.352;2023-03-14T04:10:05;10.23;;;2.10;;
21128;SDS011;10722;51.910;8.352;2023-03-14T04:12:50;14.53;;;2.10;;
21128;SDS011;10722;51.910;8.352;2023-03-14T04:15:35;14.87;;;2.40;;
21128;SDS011;10722;51.910;8.352;2023-03-14T04:18:21;9.30;;;1.87;;
21128;SDS011;10722;51.910;8.352;2023-03-14T04:21:06;11.20;;;2.07;;
21128;SDS011;10722;51.910;8.352;2023-03-14T04:23:52;10.10;;;1.60;;
21128;SDS011;10722;51.910;8.352;2023-03-14T04:26:37;14.43;;;2.20;;
21128;SDS011;10722;51.910;8.352;2023-03-14T04:29:23;11.03;;;1.70;;
21128;SDS011;10722;51.910;8.352;2023-03-14T04:32:08;15.30;;;1.90;;
21128;SDS011;10722;51.910;8.352;2023-03-14T04:34:53;13.70;;;2.10;;
21128;SDS011;10722;51.910;8.352;2023-03-14T04:37:39;13.40;;;2.00;;
21128;SDS011;10722;51.910;8.352;2023-03-14T04:40:24;8.47;;;1.60;;
21128;SDS011;10722;51.910;8.352;2023-03-14T04:43:11;14.87;;;2.47;;
21128;SDS011;10722;51.910;8.352;2023-03-14T04:45:56;14.97;;;2.20;;
21128;SDS011;10722;51.910;8.352;2023-03-14T04:48:42;11.93;;;2.10;;
21128;SDS011;10722;51.910;8.352;2023-03-14T04:51:28;13.87;;;2.13;;
21128;SDS011;10722;51.910;8.352;2023-03-14T04:54:13;11.47;;;1.90;;
21128;SDS011;10722;51.910;8.352;2023-03-14T04:56:58;14.33;;;2.33;;
21128;SDS011;10722;51.910;8.352;2023-03-14T04:59:44;13.77;;;2.10;;
21128;SDS011;10722;51.910;8.352;2023-03-14T05:02:29;10.87;;;2.10;;
21128;SDS011;10722;51.910;8.352;2023-03-14T05:05:14;16.23;;;2.27;;
21128;SDS011;10722;51.910;8.352;2023-03-14T05:08:00;15.00;;;2.10;;
21128;SDS011;10722;51.910;8.352;2023-03-14T05:10:50;14.07;;;2.40;;
21128;SDS011;10722;51.910;8.352;2023-03-14T05:13:37;11.30;;;1.90;;
21128;SDS011;10722;51.910;8.352;2023-03-14T05:16:24;14.17;;;2.43;;
21128;SDS011;10722;51.910;8.352;2023-03-14T05:19:09;11.60;;;2.00;;
21128;SDS011;10722;51.910;8.352;2023-03-14T05:21:55;10.37;;;1.80;;
21128;SDS011;10722;51.910;8.352;2023-03-14T05:24:40;13.73;;;2.20;;
21128;SDS011;10722;51.910;8.352;2023-03-14T05:27:25;10.90;;;1.90;;
21128;SDS011;10722;51.910;8.352;2023-03-14T05:30:11;13.70;;;2.33;;
21128;SDS011;10722;51.910;8.352;2023-03-14T05:32:57;9.27;;;2.17;;
21128;SDS011;10722;51.910;8.352;2023-03-14T05:35:42;10.17;;;1.93;;
21128;SDS011;10722;51.910;8.352;2023-03-14T05:38:27;8.87;;;1.70;;
21128;SDS011;10722;51.910;8.352;2023-03-14T05:41:13;8.70;;;1.90;;
21128;SDS011;10722;51.910;8.352;2023-03-14T05:43:58;6.50;;;1.60;;
21128;SDS011;10722;51.910;8.352;2023-03-14T05:46:44;8.17;;;1.50;;
21128;SDS011;10722;51.910;8.352;2023-03-14T05:49:29;6.37;;;1.10;;
21128;SDS011;10722;51.910;8.352;2023-03-14T05:52:15;6.87;;;1.20;;
21128;SDS011;10722;51.910;8.352;2023-03-14T05:55:00;4.53;;;0.90;;
21128;SDS011;10722;51.910;8.352;2023-03-14T05:57:45;5.73;;;1.20;;
21128;SDS011;10722;51.910;8.352;2023-03-14T06:00:30;4.83;;;1.30;;
21128;SDS011;10722;51.910;8.352;2023-03-14T06:03:16;4.10;;;1.10;;
21128;SDS011;10722;51.910;8.352;2023-03-14T06:06:01;5.30;;;1.23;;
21128;SDS011;10722;51.910;8.352;2023-03-14T06:08:50;5.10;;;0.80;;
21128;SDS011;10722;51.910;8.352;2023-03-14T06:11:35;6.23;;;1.00;;
21128;SDS011;10722;51.910;8.352;2023-03-14T06:14:21;4.77;;;0.83;;
21128;SDS011;10722;51.910;8.352;2023-03-14T06:17:06;2.33;;;0.63;;
21128;SDS011;10722;51.910;8.352;2023-03-14T06:19:52;4.17;;;0.80;;
21128;SDS011;10722;51.910;8.352;2023-03-14T06:22:37;2.90;;;0.80;;
21128;SDS011;10722;51.910;8.352;2023-03-14T06:25:22;4.53;;;1.00;;
21128;SDS011;10722;51.910;8.352;2023-03-14T06:28:07;0.83;;;0.60;;
21128;SDS011;10722;51.910;8.352;2023-03-14T06:30:53;2.63;;;0.70;;
21128;SDS011;10722;51.910;8.352;2023-03-14T06:33:38;4.10;;;0.90;;
21128;SDS011;10722;51.910;8.352;2023-03-14T06:36:24;2.77;;;0.67;;
21128;SDS011;10722;51.910;8.352;2023-03-14T06:39:09;4.47;;;1.07;;
21128;SDS011;10722;51.910;8.352;2023-03-14T06:41:55;2.03;;;0.80;;
21128;SDS011;10722;51.910;8.352;2023-03-14T06:44:40;2.37;;;0.70;;
21128;SDS011;10722;51.910;8.352;2023-03-14T06:47:25;3.20;;;0.70;;
21128;SDS011;10722;51.910;8.352;2023-03-14T06:50:11;2.40;;;0.83;;
21128;SDS011;10722;51.910;8.352;2023-03-14T06:52:56;6.87;;;1.53;;
21128;SDS011;10722;51.910;8.352;2023-03-14T06:55:42;3.70;;;0.90;;
21128;SDS011;10722;51.910;8.352;2023-03-14T06:58:27;3.00;;;0.80;;
21128;SDS011;10722;51.910;8.352;2023-03-14T07:01:20;4.67;;;1.00;;
21128;SDS011;10722;51.910;8.352;2023-03-14T07:04:09;5.07;;;0.97;;
21128;SDS011;10722;51.910;8.352;2023-03-14T07:06:55;3.27;;;0.83;;
21128;SDS011;10722;51.910;8.352;2023-03-14T07:09:41;4.93;;;1.10;;
21128;SDS011;10722;51.910;8.352;2023-03-14T07:12:26;4.90;;;0.90;;
21128;SDS011;10722;51.910;8.352;2023-03-14T07:15:12;3.13;;;1.03;;
21128;SDS011;10722;51.910;8.352;2023-03-14T07:18:03;9.50;;;3.00;;
21128;SDS011;10722;51.910;8.352;2023-03-14T07:20:48;9.07;;;2.53;;
21128;SDS011;10722;51.910;8.352;2023-03-14T07:23:35;4.53;;;1.50;;
21128;SDS011;10722;51.910;8.352;2023-03-14T07:26:21;8.13;;;2.40;;
21128;SDS011;10722;51.910;8.352;2023-03-14T07:29:07;10.80;;;2.57;;
21128;SDS011;10722;51.910;8.352;2023-03-14T07:31:52;11.97;;;3.13;;
21128;SDS011;10722;51.910;8.352;2023-03-14T07:34:37;8.83;;;2.63;;
21128;SDS011;10722;51.910;8.352;2023-03-14T07:37:41;10.37;;;2.33;;
21128;SDS011;10722;51.910;8.352;2023-03-14T07:40:26;10.43;;;3.17;;
21128;SDS011;10722;51.910;8.352;2023-03-14T07:43:12;9.70;;;3.03;;
21128;SDS011;10722;51.910;8.352;2023-03-14T07:45:57;6.10;;;2.07;;
21128;SDS011;10722;51.910;8.352;2023-03-14T07:48:43;7.17;;;2.00;;
21128;SDS011;10722;51.910;8.352;2023-03-14T07:51:29;7.97;;;1.93;;
21128;SDS011;10722;51.910;8.352;2023-03-14T07:54:14;5.77;;;1.70;;
21128;SDS011;10722;51.910;8.352;2023-03-14T07:56:59;6.33;;;1.47;;
21128;SDS011;10722;51.910;8.352;2023-03-14T07:59:45;5.57;;;2.00;;
21128;SDS011;10722;51.910;8.352;2023-03-14T08:02:30;10.10;;;2.20;;
21128;SDS011;10722;51.910;8.352;2023-03-14T08:05:15;7.37;;;1.70;;
21128;SDS011;10722;51.910;8.352;2023-03-14T08:08:00;6.97;;;1.93;;
21128;SDS011;10722;51.910;8.352;2023-03-14T08:10:45;5.37;;;1.80;;
21128;SDS011;10722;51.910;8.352;2023-03-14T08:13:31;6.77;;;1.63;;
21128;SDS011;10722;51.910;8.352;2023-03-14T08:16:16;6.13;;;1.80;;
21128;SDS011;10722;51.910;8.352;2023-03-14T08:19:02;7.63;;;1.80;;
21128;SDS011;10722;51.910;8.352;2023-03-14T08:21:47;3.83;;;1.47;;
21128;SDS011;10722;51.910;8.352;2023-03-14T08:24:32;6.50;;;1.70;;
21128;SDS011;10722;51.910;8.352;2023-03-14T08:27:17;8.50;;;1.70;;
21128;SDS011;10722;51.910;8.352;2023-03-14T08:30:03;4.00;;;1.30;;
21128;SDS011;10722;51.910;8.352;2023-03-14T08:33:09;5.70;;;1.70;;
21128;SDS011;10722;51.910;8.352;2023-03-14T08:35:55;3.73;;;1.80;;
21128;SDS011;10722;51.910;8.352;2023-03-14T08:38:42;5.50;;;2.13;;
21128;SDS011;10722;51.910;8.352;2023-03-14T08:41:27;3.87;;;2.23;;
21128;SDS011;10722;51.910;8.352;2023-03-14T08:44:12;5.47;;;2.40;;
21128;SDS011;10722;51.910;8.352;2023-03-14T08:46:58;5.23;;;2.20;;
21128;SDS011;10722;51.910;8.352;2023-03-14T08:49:43;6.80;;;2.50;;
21128;SDS011;10722;51.910;8.352;2023-03-14T08:52:28;3.97;;;1.90;;
21128;SDS011;10722;51.910;8.352;2023-03-14T08:55:14;7.13;;;2.10;;
21128;SDS011;10722;51.910;8.352;2023-03-14T08:57:59;3.83;;;2.00;;
21128;SDS011;10722;51.910;8.352;2023-03-14T09:00:45;5.07;;;2.10;;
21128;SDS011;10722;51.910;8.352;2023-03-14T09:03:30;7.17;;;2.10;;
21128;SDS011;10722;51.910;8.352;2023-03-14T09:06:18;7.80;;;2.50;;
21128;SDS011;10722;51.910;8.352;2023-03-14T09:09:13;12.43;;;2.50;;
21128;SDS011;10722;51.910;8.352;2023-03-14T09:11:58;13.40;;;2.80;;
21128;SDS011;10722;51.910;8.352;2023-03-14T09:14:44;6.27;;;2.30;;
21128;SDS011;10722;51.910;8.352;2023-03-14T09:17:29;13.07;;;3.00;;
21128;SDS011;10722;51.910;8.352;2023-03-14T09:20:21;6.47;;;2.07;;
21128;SDS011;10722;51.910;8.352;2023-03-14T09:23:16;7.27;;;2.37;;
21128;SDS011;10722;51.910;8.352;2023-03-14T09:26:02;7.73;;;2.27;;
21128;SDS011;10722;51.910;8.352;2023-03-14T09:28:50;4.03;;;1.80;;
21128;SDS011;10722;51.910;8.352;2023-03-14T09:31:37;3.27;;;1.70;;
21128;SDS011;10722;51.910;8.352;2023-03-14T09:34:22;2.87;;;1.57;;
21128;SDS011;10722;51.910;8.352;2023-03-14T09:37:07;3.60;;;1.80;;
21128;SDS011;10722;51.910;8.352;2023-03-14T09:39:53;4.37;;;1.83;;
21128;SDS011;10722;51.910;8.352;2023-03-14T09:42:38;3.83;;;2.10;;
21128;SDS011;10722;51.910;8.352;2023-03-14T09:45:25;4.30;;;2.10;;
21128;SDS011;10722;51.910;8.352;2023-03-14T09:48:23;5.57;;;2.60;;
21128;SDS011;10722;51.910;8.352;2023-03-14T09:51:13;6.33;;;2.23;;
21128;SDS011;10722;51.910;8.352;2023-03-14T09:54:01;6.33;;;2.70;;
21128;SDS011;10722;51.910;8.352;2023-03-14T09:56:46;5.93;;;2.87;;
21128;SDS011;10722;51.910;8.352;2023-03-14T09:59:31;6.07;;;2.67;;
21128;SDS011;10722;51.910;8.352;2023-03-14T10:02:21;7.03;;;3.10;;
21128;SDS011;10722;51.910;8.352;2023-03-14T10:05:13;9.13;;;3.50;;
21128;SDS011;10722;51.910;8.352;2023-03-14T10:08:00;9.27;;;3.80;;
21128;SDS011;10722;51.910;8.352;2023-03-14T10:10:47;9.80;;;4.00;;
21128;SDS011;10722;51.910;8.352;2023-03-14T10:13:32;9.30;;;4.10;;
21128;SDS011;10722;51.910;8.352;2023-03-14T10:16:18;9.30;;;4.17;;
21128;SDS011;10722;51.910;8.352;2023-03-14T10:19:14;10.80;;;4.50;;
21128;SDS011;10722;51.910;8.352;2023-03-14T10:22:01;8.60;;;4.13;;
21128;SDS011;10722;51.910;8.352;2023-03-14T10:24:54;10.37;;;4.60;;
21128;SDS011;10722;51.910;8.352;2023-03-14T10:27:41;10.93;;;5.20;;
21128;SDS011;10722;51.910;8.352;2023-03-14T10:36:03;16.67;;;8.47;;
21128;SDS011;10722;51.910;8.352;2023-03-14T10:45:06;2.03;;;0.70;;
21128;SDS011;10722;51.910;8.352;2023-03-14T10:51:27;1.63;;;0.90;;
21128;SDS011;10722;51.910;8.352;2023-03-14T10:54:19;4.67;;;1.00;;
21128;SDS011;10722;51.910;8.352;2023-03-14T10:57:05;3.17;;;1.00;;
21128;SDS011;10722;51.910;8.352;2023-03-14T10:59:51;4.63;;;1.33;;
21128;SDS011;10722;51.910;8.352;2023-03-14T11:05:58;5.67;;;1.30;;
21128;SDS011;10722;51.910;8.352;2023-03-14T11:11:50;4.67;;;1.80;;
21128;SDS011;10722;51.910;8.352;2023-03-14T11:14:36;4.73;;;1.97;;
21128;SDS011;10722;51.910;8.352;2023-03-14T11:26:59;1.20;;;1.00;;
21128;SDS011;10722;51.910;8.352;2023-03-14T11:29:55;2.10;;;0.90;;
21128;SDS011;10722;51.910;8.352;2023-03-14T11:32:59;2.93;;;1.03;;
21128;SDS011;10722;51.910;8.352;2023-03-14T11:36:03;3.97;;;0.90;;
21128;SDS011;10722;51.910;8.352;2023-03-14T11:39:00;3.30;;;0.80;;
21128;SDS011;10722;51.910;8.352;2023-03-14T11:42:11;2.00;;;0.70;;
21128;SDS011;10722;51.910;8.352;2023-03-14T11:45:00;1.93;;;0.53;;
21128;SDS011;10722;51.910;8.352;2023-03-14T11:51:24;0.43;;;0.40;;
21128;SDS011;10722;51.910;8.352;2023-03-14T11:54:15;2.30;;;0.73;;
21128;SDS011;10722;51.910;8.352;2023-03-14T11:57:11;3.17;;;0.80;;
21128;SDS011;10722;51.910;8.352;2023-03-14T12:03:17;6.63;;;1.17;;
21128;SDS011;10722;51.910;8.352;2023-03-14T12:09:11;9.03;;;1.63;;
21128;SDS011;10722;51.910;8.352;2023-03-14T12:11:58;5.93;;;1.23;;
21128;SDS011;10722;51.910;8.352;2023-03-14T12:14:54;7.67;;;1.20;;
21128;SDS011;10722;51.910;8.352;2023-03-14T12:20:53;14.07;;;2.23;;
21128;SDS011;10722;51.910;8.352;2023-03-14T12:23:44;11.37;;;1.67;;
21128;SDS011;10722;51.910;8.352;2023-03-14T12:26:58;8.83;;;1.57;;
21128;SDS011;10722;51.910;8.352;2023-03-14T12:29:59;13.80;;;1.60;;
21128;SDS011;10722;51.910;8.352;2023-03-14T12:35:59;13.50;;;1.93;;
21128;SDS011;10722;51.910;8.352;2023-03-14T12:38:49;12.17;;;1.90;;
21128;SDS011;10722;51.910;8.352;2023-03-14T12:41:45;15.07;;;2.00;;
21128;SDS011;10722;51.910;8.352;2023-03-14T12:44:40;15.73;;;2.30;;
21128;SDS011;10722;51.910;8.352;2023-03-14T12:50:25;11.87;;;1.93;;
21128;SDS011;10722;51.910;8.352;2023-03-14T13:00:19;10.40;;;2.20;;
21128;SDS011;10722;51.910;8.352;2023-03-14T13:06:13;16.60;;;2.40;;
21128;SDS011;10722;51.910;8.352;2023-03-14T13:12:16;13.33;;;2.80;;
21128;SDS011;10722;51.910;8.352;2023-03-14T13:15:02;13.57;;;2.17;;
21128;SDS011;10722;51.910;8.352;2023-03-14T13:18:02;17.70;;;2.20;;
21128;SDS011;10722;51.910;8.352;2023-03-14T13:20:55;17.47;;;2.40;;
21128;SDS011;10722;51.910;8.352;2023-03-14T13:23:58;27.10;;;3.97;;
21128;SDS011;10722;51.910;8.352;2023-03-14T13:26:48;19.40;;;3.03;;
21128;SDS011;10722;51.910;8.352;2023-03-14T13:29:33;18.97;;;2.67;;
21128;SDS011;10722;51.910;8.352;2023-03-14T13:32:21;22.03;;;3.30;;
21128;SDS011;10722;51.910;8.352;2023-03-14T13:35:23;23.03;;;3.03;;
21128;SDS011;10722;51.910;8.352;2023-03-14T13:38:16;23.13;;;3.00;;
21128;SDS011;10722;51.910;8.352;2023-03-14T13:41:04;19.77;;;3.50;;
21128;SDS011;10722;51.910;8.352;2023-03-14T13:43:51;21.83;;;3.30;;
21128;SDS011;10722;51.910;8.352;2023-03-14T13:46:45;25.20;;;4.13;;
21128;SDS011;10722;51.910;8.352;2023-03-14T13:49:31;27.67;;;3.60;;
21128;SDS011;10722;51.910;8.352;2023-03-14T13:52:28;24.30;;;3.57;;
21128;SDS011;10722;51.910;8.352;2023-03-14T13:55:15;25.10;;;4.10;;
21128;SDS011;10722;51.910;8.352;2023-03-14T13:58:02;29.43;;;3.93;;
21128;SDS011;10722;51.910;8.352;2023-03-14T14:00:58;25.20;;;3.90;;
21128;SDS011;10722;51.910;8.352;2023-03-14T14:03:50;26.67;;;3.97;;
21128;SDS011;10722;51.910;8.352;2023-03-14T14:06:38;26.93;;;4.23;;
21128;SDS011;10722;51.910;8.352;2023-03-14T14:09:30;25.53;;;3.87;;
21128;SDS011;10722;51.910;8.352;2023-03-14T14:15:14;21.90;;;3.60;;
21128;SDS011;10722;51.910;8.352;2023-03-14T14:18:01;19.80;;;3.50;;
21128;SDS011;10722;51.910;8.352;2023-03-14T14:20:49;23.77;;;3.67;;
21128;SDS011;10722;51.910;8.352;2023-03-14T14:23:35;20.97;;;3.03;;
21128;SDS011;10722;51.910;8.352;2023-03-14T14:26:21;24.27;;;3.40;;
21128;SDS011;10722;51.910;8.352;2023-03-14T14:29:18;21.50;;;3.20;;
21128;SDS011;10722;51.910;8.352;2023-03-14T14:38:10;27.50;;;3.57;;
21128;SDS011;10722;51.910;8.352;2023-03-14T14:41:01;21.50;;;3.57;;
21128;SDS011;10722;51.910;8.352;2023-03-14T14:43:47;19.90;;;3.37;;
21128;SDS011;10722;51.910;8.352;2023-03-14T14:46:33;22.97;;;3.17;;
21128;SDS011;10722;51.910;8.352;2023-03-14T14:49:22;20.03;;;3.07;;
21128;SDS011;10722;51.910;8.352;2023-03-14T14:55:18;21.63;;;3.60;;
21128;SDS011;10722;51.910;8.352;2023-03-14T15:01:24;17.50;;;3.13;;
21128;SDS011;10722;51.910;8.352;2023-03-14T15:04:11;19.80;;;3.60;;
21128;SDS011;10722;51.910;8.352;2023-03-14T15:06:58;15.23;;;2.67;;
21128;SDS011;10722;51.910;8.352;2023-03-14T15:09:43;15.37;;;3.00;;
21128;SDS011;10722;51.910;8.352;2023-03-14T15:12:28;16.13;;;2.80;;
21128;SDS011;10722;51.910;8.352;2023-03-14T15:15:14;17.43;;;2.40;;
21128;SDS011;10722;51.910;8.352;2023-03-14T15:18:00;19.30;;;2.63;;
21128;SDS011;10722;51.910;8.352;2023-03-14T15:20:44;19.43;;;3.00;;
21128;SDS011;10722;51.910;8.352;2023-03-14T15:23:30;15.40;;;2.97;;
21128;SDS011;10722;51.910;8.352;2023-03-14T15:26:17;17.53;;;2.60;;
21128;SDS011;10722;51.910;8.352;2023-03-14T15:29:05;18.10;;;2.37;;
21128;SDS011;10722;51.910;8.352;2023-03-14T15:31:51;10.90;;;1.97;;
21128;SDS011;10722;51.910;8.352;2023-03-14T15:34:36;16.77;;;2.63;;
21128;SDS011;10722;51.910;8.352;2023-03-14T15:37:21;13.20;;;2.33;;
21128;SDS011;10722;51.910;8.352;2023-03-14T15:40:09;15.37;;;2.10;;
21128;SDS011;10722;51.910;8.352;2023-03-14T15:42:57;14.43;;;2.20;;
21128;SDS011;10722;51.910;8.352;2023-03-14T15:45:42;15.83;;;2.50;;
21128;SDS011;10722;51.910;8.352;2023-03-14T15:48:28;15.63;;;2.43;;
21128;SDS011;10722;51.910;8.352;2023-03-14T15:51:13;14.60;;;2.17;;
21128;SDS011;10722;51.910;8.352;2023-03-14T15:53:59;15.07;;;2.27;;
21128;SDS011;10722;51.910;8.352;2023-03-14T15:56:44;19.93;;;2.80;;
21128;SDS011;10722;51.910;8.352;2023-03-14T15:59:29;13.73;;;1.90;;
21128;SDS011;10722;51.910;8.352;2023-03-14T16:02:15;12.73;;;2.27;;
21128;SDS011;10722;51.910;8.352;2023-03-14T16:05:00;14.03;;;2.40;;
21128;SDS011;10722;51.910;8.352;2023-03-14T16:07:45;12.27;;;2.20;;
21128;SDS011;10722;51.910;8.352;2023-03-14T16:10:31;11.53;;;1.90;;
21128;SDS011;10722;51.910;8.352;2023-03-14T16:13:17;14.07;;;2.40;;
21128;SDS011;10722;51.910;8.352;2023-03-14T16:16:03;11.67;;;2.30;;
21128;SDS011;10722;51.910;8.352;2023-03-14T16:18:51;10.10;;;2.13;;
21128;SDS011;10722;51.910;8.352;2023-03-14T16:21:36;10.23;;;1.87;;
21128;SDS011;10722;51.910;8.352;2023-03-14T16:24:22;10.87;;;2.10;;
21128;SDS011;10722;51.910;8.352;2023-03-14T16:27:07;14.43;;;2.10;;
21128;SDS011;10722;51.910;8.352;2023-03-14T16:29:53;13.33;;;2.37;;
21128;SDS011;10722;51.910;8.352;2023-03-14T16:32:38;11.60;;;2.10;;
21128;SDS011;10722;51.910;8.352;2023-03-14T16:35:24;12.63;;;2.20;;
21128;SDS011;10722;51.910;8.352;2023-03-14T16:38:09;12.00;;;2.13;;
21128;SDS011;10722;51.910;8.352;2023-03-14T16:40:55;14.27;;;2.27;;
21128;SDS011;10722;51.910;8.352;2023-03-14T16:43:45;17.30;;;4.50;;
21128;SDS011;10722;51.910;8.352;2023-03-14T16:46:31;15.33;;;3.20;;
21128;SDS011;10722;51.910;8.352;2023-03-14T16:49:16;11.17;;;2.10;;
21128;SDS011;10722;51.910;8.352;2023-03-14T16:52:01;14.27;;;2.20;;
21128;SDS011;10722;51.910;8.352;2023-03-14T16:54:47;16.63;;;2.30;;
21128;SDS011;10722;51.910;8.352;2023-03-14T16:57:32;14.13;;;2.10;;
21128;SDS011;10722;51.910;8.352;2023-03-14T17:00:19;15.93;;;2.30;;
21128;SDS011;10722;51.910;8.352;2023-03-14T17:03:05;13.93;;;2.30;;
21128;SDS011;10722;51.910;8.352;2023-03-14T17:05:50;12.87;;;2.20;;
21128;SDS011;10722;51.910;8.352;2023-03-14T17:08:37;10.80;;;1.87;;
21128;SDS011;10722;51.910;8.352;2023-03-14T17:11:22;14.03;;;2.30;;
21128;SDS011;10722;51.910;8.352;2023-03-14T17:14:08;16.43;;;2.30;;
21128;SDS011;10722;51.910;8.352;2023-03-14T17:16:54;16.83;;;3.33;;
21128;SDS011;10722;51.910;8.352;2023-03-14T17:19:39;18.00;;;2.70;;
21128;SDS011;10722;51.910;8.352;2023-03-14T17:22:25;11.57;;;2.20;;
21128;SDS011;10722;51.910;8.352;2023-03-14T17:25:15;18.23;;;3.00;;
21128;SDS011;10722;51.910;8.352;2023-03-14T17:28:01;14.30;;;2.23;;
21128;SDS011;10722;51.910;8.352;2023-03-14T17:30:46;12.53;;;2.47;;
21128;SDS011;10722;51.910;8.352;2023-03-14T17:33:32;13.07;;;2.20;;
21128;SDS011;10722;51.910;8.352;2023-03-14T17:36:18;14.37;;;2.67;;
21128;SDS011;10722;51.910;8.352;2023-03-14T17:39:03;15.03;;;2.17;;
21128;SDS011;10722;51.910;8.352;2023-03-14T17:41:51;12.13;;;2.20;;
21128;SDS011;10722;51.910;8.352;2023-03-14T17:44:36;11.70;;;2.10;;
21128;SDS011;10722;51.910;8.352;2023-03-14T17:47:22;11.93;;;2.40;;
21128;SDS011;10722;51.910;8.352;2023-03-14T17:50:07;11.27;;;1.93;;
21128;SDS011;10722;51.910;8.352;2023-03-14T17:52:53;14.63;;;2.20;;
21128;SDS011;10722;51.910;8.352;2023-03-14T17:55:38;14.63;;;2.80;;
21128;SDS011;10722;51.910;8.352;2023-03-14T17:58:26;12.37;;;2.10;;
21128;SDS011;10722;51.910;8.352;2023-03-14T18:01:12;16.33;;;2.47;;
21128;SDS011;10722;51.910;8.352;2023-03-14T18:04:03;14.50;;;2.30;;
21128;SDS011;10722;51.910;8.352;2023-03-14T18:06:48;14.27;;;2.70;;
21128;SDS011;10722;51.910;8.352;2023-03-14T18:09:33;18.90;;;3.03;;
21128;SDS011;10722;51.910;8.352;2023-03-14T18:12:18;18.03;;;4.60;;
21128;SDS011;10722;51.910;8.352;2023-03-14T18:15:04;12.27;;;2.03;;
21128;SDS011;10722;51.910;8.352;2023-03-14T18:17:49;13.20;;;2.43;;